Time;durP1;ratioP1;P1;durP2;ratioP2;P2;SDS_P1;SDS_P2;PMS_P1;PMS_P2;Temp;Humidity;BMP_temperature;BMP_pressure;BME280_temperature;BME280_humidity;BME280_pressure;Samples;Min_cycle;Max_cycle;Signal;HPM_P1;HPM_P2
2024/02/07 00:01:19;;;;;;;4.03;1.70;;;10.70;99.90;;;;;;4956716;28;20460;-68
2024/02/07 00:03:46;;;;;;;4.80;1.40;;;10.60;99.90;;;;;;4961487;28;20467;-68
2024/02/07 00:06:16;;;;;;;3.77;2.40;;;10.70;99.90;;;;;;4961728;28;20494;-68
2024/02/07 00:08:43;;;;;;;5.43;1.90;;;10.60;99.90;;;;;;4964069;28;20471;-68
2024/02/07 00:11:09;;;;;;;4.60;2.30;;;10.60;99.90;;;;;;4965714;28;20467;-68
2024/02/07 00:13:36;;;;;;;4.30;2.50;;;10.70;99.90;;;;;;4952549;28;20453;-69
2024/02/07 00:16:04;;;;;;;4.77;2.97;;;10.60;99.90;;;;;;4966962;28;20464;-68
2024/02/07 00:18:30;;;;;;;1.70;1.60;;;10.60;99.90;;;;;;4955460;28;20483;-68
2024/02/07 00:20:57;;;;;;;2.77;2.43;;;10.60;99.90;;;;;;4963029;28;20474;-68
2024/02/07 00:23:26;;;;;;;13.30;2.87;;;10.60;99.90;;;;;;4960993;28;20471;-68
2024/02/07 00:25:52;;;;;;;4.63;2.40;;;10.60;99.90;;;;;;4962213;28;20486;-68
2024/02/07 00:28:19;;;;;;;4.03;2.27;;;10.60;99.90;;;;;;4962303;28;21012;-68
2024/02/07 00:30:47;;;;;;;2.50;1.80;;;10.60;99.90;;;;;;4962751;28;20463;-68
2024/02/07 00:33:14;;;;;;;6.00;2.83;;;10.60;99.90;;;;;;4964438;28;20462;-68
2024/02/07 00:35:40;;;;;;;2.27;1.70;;;10.60;99.90;;;;;;4964643;28;20483;-68
2024/02/07 00:38:07;;;;;;;3.03;2.53;;;10.60;99.90;;;;;;4963985;28;20478;-68
2024/02/07 00:40:35;;;;;;;4.07;1.97;;;10.60;99.90;;;;;;4955193;28;20467;-68
2024/02/07 00:43:03;;;;;;;4.63;3.10;;;10.60;99.90;;;;;;4964224;28;20973;-68
2024/02/07 00:45:30;;;;;;;5.10;1.90;;;10.60;99.90;;;;;;4961203;28;20566;-68
2024/02/07 00:47:57;;;;;;;1.83;1.73;;;10.60;99.90;;;;;;4959289;28;20455;-67
2024/02/07 00:50:23;;;;;;;3.90;2.80;;;10.60;99.90;;;;;;4959467;28;20476;-67
2024/02/07 00:52:50;;;;;;;2.97;2.30;;;10.60;99.90;;;;;;4966252;28;20463;-68
2024/02/07 00:55:17;;;;;;;2.80;2.20;;;10.60;99.90;;;;;;4965957;28;20487;-68
2024/02/07 00:57:46;;;;;;;6.77;2.80;;;10.60;99.90;;;;;;4966833;28;20483;-68
2024/02/07 01:00:14;;;;;;;2.10;1.70;;;10.60;99.90;;;;;;4958715;28;20559;-69
2024/02/07 01:02:42;;;;;;;3.90;2.10;;;10.60;99.90;;;;;;4962520;28;20478;-69
2024/02/07 01:05:09;;;;;;;5.73;2.73;;;10.60;99.90;;;;;;4966767;28;20459;-68
2024/02/07 01:07:37;;;;;;;7.47;1.87;;;10.60;99.90;;;;;;4964785;28;20462;-68
2024/02/07 01:10:04;;;;;;;2.40;1.80;;;10.70;99.90;;;;;;4959144;28;20459;-68
2024/02/07 01:12:31;;;;;;;2.07;1.90;;;10.70;99.90;;;;;;4953032;28;20482;-68
2024/02/07 01:14:59;;;;;;;2.10;1.90;;;10.70;99.90;;;;;;4962588;28;20570;-68
2024/02/07 01:17:26;;;;;;;2.60;1.70;;;10.70;99.90;;;;;;4964377;28;20491;-67
2024/02/07 01:19:54;;;;;;;3.43;2.23;;;10.70;99.90;;;;;;4963589;28;20605;-68
2024/02/07 01:22:20;;;;;;;2.00;1.77;;;10.70;99.90;;;;;;4959424;28;20904;-67
2024/02/07 01:24:47;;;;;;;2.60;1.43;;;10.70;99.90;;;;;;4959641;28;20827;-68
2024/02/07 01:27:14;;;;;;;5.27;2.33;;;10.70;99.90;;;;;;4961239;28;20486;-68
2024/02/07 01:29:41;;;;;;;3.27;2.77;;;10.80;99.90;;;;;;4961415;28;20903;-68
2024/02/07 01:32:09;;;;;;;13.50;4.33;;;10.80;99.90;;;;;;4961102;28;20466;-69
2024/02/07 01:34:36;;;;;;;4.83;2.33;;;10.80;99.90;;;;;;4961083;28;20971;-69
2024/02/07 01:37:05;;;;;;;1.80;1.70;;;10.80;99.90;;;;;;4960397;28;20486;-68
2024/02/07 01:39:35;;;;;;;2.37;2.17;;;10.80;99.90;;;;;;4966461;28;20467;-68
2024/02/07 01:42:04;;;;;;;6.57;2.37;;;10.80;99.90;;;;;;4959824;28;20470;-68
2024/02/07 01:44:31;;;;;;;5.60;1.90;;;10.80;99.90;;;;;;4953744;28;20499;-67
2024/02/07 01:47:14;;;;;;;3.10;2.63;;;10.80;99.90;;;;;;4960183;28;20489;-68
2024/02/07 01:49:47;;;;;;;4.87;2.50;;;10.80;99.90;;;;;;4959213;28;20918;-69
2024/02/07 01:52:16;;;;;;;6.93;3.30;;;10.80;99.90;;;;;;4958824;28;20464;-69
2024/02/07 01:54:44;;;;;;;3.73;2.50;;;10.90;99.90;;;;;;4955545;28;20463;-69
2024/02/07 01:57:11;;;;;;;2.13;1.40;;;10.90;99.90;;;;;;4960652;28;20485;-69
2024/02/07 01:59:40;;;;;;;1.43;1.27;;;10.60;99.90;;;;;;4958426;28;20529;-68
2024/02/07 02:02:07;;;;;;;2.67;1.17;;;9.90;99.90;;;;;;4957272;28;20473;-68
2024/02/07 02:04:35;;;;;;;1.60;1.50;;;9.60;99.90;;;;;;4961914;28;20459;-68
2024/02/07 02:07:03;;;;;;;1.73;1.63;;;9.50;99.90;;;;;;4954424;28;20502;-68
2024/02/07 02:09:31;;;;;;;1.97;1.20;;;9.50;99.90;;;;;;4956418;28;20481;-68
2024/02/07 02:11:58;;;;;;;1.67;1.57;;;9.10;99.90;;;;;;4966391;28;20479;-68
2024/02/07 02:14:25;;;;;;;1.37;0.87;;;8.80;99.90;;;;;;4969770;23;20494;-70
2024/02/07 02:16:52;;;;;;;1.20;0.70;;;8.40;99.90;;;;;;4963325;28;20900;-70
2024/02/07 02:19:19;;;;;;;0.90;0.63;;;8.10;99.90;;;;;;4965257;28;20483;-71
2024/02/07 02:22:07;;;;;;;0.90;0.60;;;7.80;99.90;;;;;;4969342;28;21251;-70
2024/02/07 02:24:50;;;;;;;1.00;0.80;;;7.50;99.90;;;;;;4964666;28;20465;-69
2024/02/07 02:27:33;;;;;;;3.63;1.97;;;7.40;99.90;;;;;;4957082;28;20489;-70
2024/02/07 02:30:09;;;;;;;0.90;0.70;;;7.30;99.90;;;;;;4966818;28;20465;-71
2024/02/07 02:32:38;;;;;;;2.90;1.03;;;7.30;99.90;;;;;;4967309;28;20795;-70
2024/02/07 02:35:07;;;;;;;1.00;0.70;;;7.20;99.90;;;;;;4954032;28;20556;-70
2024/02/07 02:37:35;;;;;;;0.90;0.70;;;7.00;99.90;;;;;;4962044;28;20501;-71
2024/02/07 02:40:05;;;;;;;1.40;0.90;;;7.10;99.90;;;;;;4962193;28;20466;-70
2024/02/07 02:42:32;;;;;;;1.00;0.80;;;7.00;99.90;;;;;;4967956;28;20470;-70
2024/02/07 02:45:00;;;;;;;2.07;0.77;;;7.00;99.90;;;;;;4957917;28;20466;-70
2024/02/07 02:47:28;;;;;;;2.33;1.00;;;7.10;99.90;;;;;;4963148;28;20436;-70
2024/02/07 02:49:55;;;;;;;1.10;1.00;;;7.10;99.90;;;;;;4969824;28;20469;-71
2024/02/07 02:52:22;;;;;;;2.27;1.03;;;7.20;99.90;;;;;;4973825;28;20458;-71
2024/02/07 02:54:49;;;;;;;0.90;0.70;;;7.20;99.90;;;;;;4972471;28;20475;-71
2024/02/07 02:57:17;;;;;;;1.20;1.00;;;7.30;99.90;;;;;;4966120;28;20580;-71
2024/02/07 02:59:44;;;;;;;1.23;0.90;;;7.20;99.90;;;;;;4968465;28;21554;-70
2024/02/07 03:02:13;;;;;;;11.63;1.00;;;7.00;99.90;;;;;;4969438;28;20462;-70
2024/02/07 03:04:42;;;;;;;1.00;0.77;;;6.90;99.90;;;;;;4967911;28;20459;-71
2024/02/07 03:09:49;;;;;;;4.50;1.20;;;6.90;99.90;;;;;;4960804;28;20473;-71
2024/02/07 03:12:16;;;;;;;1.10;1.00;;;6.80;99.90;;;;;;4968542;28;20466;-70
2024/02/07 03:14:43;;;;;;;1.83;0.73;;;6.90;99.90;;;;;;4972236;28;21192;-70
2024/02/07 03:17:12;;;;;;;1.00;0.80;;;6.90;99.90;;;;;;4965858;28;20473;-70
2024/02/07 03:19:39;;;;;;;2.40;0.80;;;6.80;99.90;;;;;;4969981;28;20503;-70
2024/02/07 03:22:06;;;;;;;0.90;0.70;;;6.80;99.90;;;;;;4969840;28;21205;-71
2024/02/07 03:24:33;;;;;;;1.63;0.70;;;6.80;99.90;;;;;;4968056;28;20467;-71
2024/02/07 03:26:59;;;;;;;3.83;0.97;;;7.00;99.90;;;;;;4966127;28;20901;-70
2024/02/07 03:29:27;;;;;;;1.00;0.80;;;7.10;99.90;;;;;;4969277;28;20457;-71
2024/02/07 03:31:53;;;;;;;1.40;0.90;;;7.20;99.90;;;;;;4965566;28;20466;-71
2024/02/07 03:34:22;;;;;;;5.03;1.10;;;6.90;99.90;;;;;;4972233;28;20459;-70
2024/02/07 03:36:48;;;;;;;0.90;0.70;;;6.90;99.90;;;;;;4963939;28;20470;-69
2024/02/07 03:39:15;;;;;;;3.63;0.90;;;6.90;99.90;;;;;;4966715;28;20993;-70
2024/02/07 03:41:42;;;;;;;0.93;0.73;;;6.80;99.90;;;;;;4975130;28;20462;-70
2024/02/07 03:44:12;;;;;;;2.30;0.90;;;6.80;99.90;;;;;;4978270;28;20475;-72
2024/02/07 03:46:40;;;;;;;1.67;1.03;;;6.70;99.90;;;;;;4968722;28;20887;-70
2024/02/07 03:49:07;;;;;;;1.80;1.60;;;6.60;99.90;;;;;;4970808;28;20457;-71
2024/02/07 03:51:35;;;;;;;2.90;1.43;;;6.70;99.90;;;;;;4969140;28;20464;-70
2024/02/07 03:54:04;;;;;;;1.73;0.90;;;6.50;99.90;;;;;;4974239;28;20438;-70
2024/02/07 03:56:30;;;;;;;1.43;0.93;;;6.60;99.90;;;;;;4969195;28;20612;-69
2024/02/07 03:58:58;;;;;;;1.57;0.90;;;6.60;99.90;;;;;;4977721;28;20452;-71
2024/02/07 04:01:26;;;;;;;3.07;1.20;;;6.80;99.90;;;;;;4974564;28;20525;-71
2024/02/07 04:03:53;;;;;;;0.93;0.73;;;6.80;99.90;;;;;;4972665;28;20443;-71
2024/02/07 04:06:19;;;;;;;3.23;1.07;;;6.90;99.90;;;;;;4974918;28;21032;-71
2024/02/07 04:08:47;;;;;;;1.20;1.00;;;6.80;99.90;;;;;;4970342;28;20909;-71
2024/02/07 05:16:26;;;;;;;3.43;0.90;;;6.30;99.90;;;;;;4973229;28;20478;-71
2024/02/07 05:18:52;;;;;;;2.50;1.03;;;6.20;99.90;;;;;;4967995;28;22686;-72
2024/02/07 05:21:19;;;;;;;0.97;0.80;;;6.40;99.90;;;;;;4977798;28;20443;-70
2024/02/07 05:23:46;;;;;;;1.00;0.70;;;6.40;99.90;;;;;;4972747;28;20809;-71
2024/02/07 05:26:13;;;;;;;1.10;0.80;;;6.30;99.90;;;;;;4970645;28;20485;-71
2024/02/07 05:28:42;;;;;;;2.90;0.90;;;6.30;99.90;;;;;;4976944;28;21081;-71
2024/02/07 05:31:08;;;;;;;2.37;1.03;;;6.40;99.90;;;;;;4969515;28;20567;-71
2024/02/07 05:33:35;;;;;;;2.17;0.90;;;6.40;99.90;;;;;;4966599;28;20458;-71
2024/02/07 05:36:02;;;;;;;2.53;0.80;;;6.20;99.90;;;;;;4978381;28;20489;-71
2024/02/07 05:38:28;;;;;;;3.17;1.57;;;6.00;99.90;;;;;;4978085;28;20495;-70
2024/02/07 05:40:56;;;;;;;1.67;0.93;;;5.90;99.90;;;;;;4972483;28;20437;-70
2024/02/07 05:43:22;;;;;;;1.33;0.90;;;5.80;99.90;;;;;;4975933;28;20485;-71
2024/02/07 05:45:50;;;;;;;1.20;1.00;;;5.60;99.90;;;;;;4972160;28;20472;-70
2024/02/07 05:48:17;;;;;;;1.30;1.03;;;5.60;99.90;;;;;;4976386;28;20484;-72
2024/02/07 05:50:45;;;;;;;5.27;1.13;;;5.60;99.90;;;;;;4976815;28;20480;-71
2024/02/07 05:53:12;;;;;;;4.20;1.13;;;5.70;99.90;;;;;;4971268;28;20976;-71
2024/02/07 05:55:39;;;;;;;1.83;1.03;;;5.70;99.90;;;;;;4973665;28;20854;-70
2024/02/07 05:58:07;;;;;;;0.90;0.70;;;5.50;99.90;;;;;;4967529;28;20474;-71
2024/02/07 06:00:33;;;;;;;6.50;0.97;;;5.60;99.90;;;;;;4970275;28;20437;-71
2024/02/07 06:03:05;;;;;;;1.10;0.80;;;5.50;99.90;;;;;;4973500;28;20504;-70
2024/02/07 06:05:32;;;;;;;1.13;0.87;;;5.50;99.90;;;;;;4972741;28;20497;-71
2024/02/07 06:08:02;;;;;;;1.93;1.10;;;5.70;99.90;;;;;;4976419;28;20712;-72
2024/02/07 06:10:29;;;;;;;1.77;1.20;;;5.70;99.90;;;;;;4973800;28;20459;-70
2024/02/07 06:12:56;;;;;;;0.90;0.70;;;5.60;99.90;;;;;;4976149;28;20470;-70
2024/02/07 06:15:23;;;;;;;1.20;1.00;;;5.50;99.90;;;;;;4973250;28;20508;-70
2024/02/07 06:17:50;;;;;;;2.20;0.93;;;5.40;99.90;;;;;;4975915;28;20836;-70
2024/02/07 06:20:18;;;;;;;1.10;0.70;;;5.30;99.90;;;;;;4972501;28;20485;-70
2024/02/07 06:22:47;;;;;;;0.97;0.70;;;5.30;99.90;;;;;;4977552;28;20470;-70
2024/02/07 06:25:14;;;;;;;1.10;0.80;;;5.40;99.90;;;;;;4977774;28;20836;-71
2024/02/07 06:27:41;;;;;;;2.03;1.13;;;5.50;99.90;;;;;;4974597;28;20460;-71
2024/02/07 06:30:08;;;;;;;1.30;0.90;;;5.70;99.90;;;;;;4972211;28;20444;-70
2024/02/07 06:32:35;;;;;;;1.17;0.80;;;5.60;99.90;;;;;;4967587;28;20480;-71
2024/02/07 06:35:02;;;;;;;1.00;0.80;;;5.40;99.90;;;;;;4979548;28;20437;-71
2024/02/07 06:37:30;;;;;;;2.50;0.70;;;5.40;99.90;;;;;;4974987;28;21091;-71
2024/02/07 06:39:57;;;;;;;1.17;0.80;;;5.50;99.90;;;;;;4971362;28;20486;-70
2024/02/07 06:42:23;;;;;;;1.90;1.10;;;5.70;99.90;;;;;;4971064;28;21387;-70
2024/02/07 06:44:50;;;;;;;2.07;1.30;;;5.70;99.90;;;;;;4972452;28;20470;-70
2024/02/07 06:47:17;;;;;;;1.57;1.47;;;5.50;99.90;;;;;;4977421;28;20479;-70
2024/02/07 06:49:43;;;;;;;2.50;0.97;;;5.50;99.90;;;;;;4972492;28;20454;-70
2024/02/07 06:52:10;;;;;;;1.00;0.80;;;5.40;99.90;;;;;;4974468;28;20840;-70
2024/02/07 06:54:38;;;;;;;1.20;1.10;;;5.50;99.90;;;;;;4969917;28;20467;-70
2024/02/07 06:57:05;;;;;;;2.03;1.13;;;5.70;99.90;;;;;;4972991;28;20490;-71
2024/02/07 06:59:32;;;;;;;1.10;0.90;;;5.60;99.90;;;;;;4975630;28;20459;-71
2024/02/07 07:01:59;;;;;;;1.70;1.10;;;5.80;99.90;;;;;;4975759;28;20470;-71
2024/02/07 07:04:25;;;;;;;1.27;0.97;;;5.80;99.90;;;;;;4979222;28;20514;-70
2024/02/07 07:06:52;;;;;;;2.70;1.57;;;5.70;99.90;;;;;;4973384;28;20484;-71
2024/02/07 07:09:19;;;;;;;1.77;1.13;;;5.60;99.90;;;;;;4974814;28;20468;-71
2024/02/07 07:11:47;;;;;;;2.13;1.87;;;5.70;99.90;;;;;;4969390;28;20947;-71
2024/02/07 07:14:13;;;;;;;6.03;1.97;;;5.60;99.90;;;;;;4975231;28;20474;-71
2024/02/07 07:16:41;;;;;;;2.13;1.77;;;5.70;99.90;;;;;;4971421;28;20478;-70
2024/02/07 07:19:07;;;;;;;4.10;2.60;;;5.70;99.90;;;;;;4970373;28;20458;-70
2024/02/07 07:21:34;;;;;;;2.77;2.07;;;5.70;99.90;;;;;;4972406;28;20429;-70
2024/02/07 07:24:01;;;;;;;3.53;2.10;;;5.80;99.90;;;;;;4972884;28;20534;-70
2024/02/07 07:26:27;;;;;;;5.10;1.20;;;5.90;99.90;;;;;;4973954;28;21450;-70
2024/02/07 07:28:57;;;;;;;2.50;1.37;;;6.00;99.90;;;;;;4974734;28;20448;-70
2024/02/07 07:31:23;;;;;;;1.47;1.30;;;6.00;99.90;;;;;;4976699;28;20479;-70
2024/02/07 07:33:50;;;;;;;2.07;1.10;;;6.00;99.90;;;;;;4974957;28;20469;-69
2024/02/07 07:36:17;;;;;;;1.50;1.37;;;5.80;99.90;;;;;;4973006;28;20719;-71
2024/02/07 07:38:44;;;;;;;3.73;1.80;;;5.70;99.90;;;;;;4972183;28;20455;-70
2024/02/07 07:41:11;;;;;;;1.50;0.97;;;5.70;99.90;;;;;;4971619;28;20467;-70
2024/02/07 07:43:38;;;;;;;7.40;2.03;;;5.90;99.90;;;;;;4977295;28;20440;-71
2024/02/07 07:46:08;;;;;;;3.20;2.00;;;5.90;99.90;;;;;;4972841;28;20472;-71
2024/02/07 07:48:34;;;;;;;2.70;1.53;;;6.00;99.90;;;;;;4971757;28;20472;-71
2024/02/07 07:51:01;;;;;;;2.57;1.60;;;6.10;99.90;;;;;;4970057;28;20468;-71
2024/02/07 07:53:28;;;;;;;9.43;1.50;;;6.20;99.90;;;;;;4970170;28;20963;-71
2024/02/07 07:55:55;;;;;;;2.50;1.67;;;6.10;99.90;;;;;;4972826;28;20482;-71
2024/02/07 07:58:22;;;;;;;3.00;1.73;;;6.10;99.90;;;;;;4969199;28;20466;-71
2024/02/07 08:00:49;;;;;;;2.93;1.83;;;6.00;99.90;;;;;;4970915;28;20549;-71
2024/02/07 08:03:17;;;;;;;4.97;1.50;;;6.10;99.90;;;;;;4974073;28;20474;-71
2024/02/07 08:05:43;;;;;;;8.03;2.50;;;6.10;99.90;;;;;;4975906;28;20490;-70
2024/02/07 08:08:10;;;;;;;4.47;2.07;;;6.10;99.90;;;;;;4976273;28;21008;-70
2024/02/07 08:10:37;;;;;;;2.17;1.97;;;6.10;99.90;;;;;;4970741;28;20473;-70
2024/02/07 08:15:46;;;;;;;3.77;2.20;;;6.30;99.90;;;;;;4984758;28;20475;-71
2024/02/07 08:18:13;;;;;;;3.53;2.40;;;6.20;99.90;;;;;;4976568;28;20566;-71
2024/02/07 08:20:41;;;;;;;4.60;1.83;;;6.10;99.90;;;;;;4981155;28;20555;-70
2024/02/07 08:23:09;;;;;;;3.77;2.07;;;6.20;99.90;;;;;;4980458;28;20471;-70
2024/02/07 08:25:36;;;;;;;4.50;2.50;;;6.30;99.90;;;;;;4982788;28;20495;-70
2024/02/07 08:28:03;;;;;;;2.80;1.93;;;6.30;99.90;;;;;;4980629;28;20443;-70
2024/02/07 08:30:30;;;;;;;4.13;2.67;;;6.40;99.90;;;;;;4978959;28;20463;-70
2024/02/07 08:32:57;;;;;;;3.37;2.10;;;6.30;99.90;;;;;;4980598;28;20443;-70
2024/02/07 08:35:24;;;;;;;4.73;2.10;;;6.40;99.90;;;;;;4986774;28;20652;-71
2024/02/07 08:37:54;;;;;;;3.00;1.50;;;6.20;99.90;;;;;;4984945;28;20832;-71
2024/02/07 08:40:21;;;;;;;5.37;2.20;;;6.30;99.90;;;;;;4983227;28;20622;-71
2024/02/07 08:42:48;;;;;;;5.73;2.57;;;6.40;99.90;;;;;;4983387;28;20450;-70
2024/02/07 08:45:16;;;;;;;4.77;3.00;;;6.50;99.90;;;;;;4980842;28;21000;-70
2024/02/07 08:47:43;;;;;;;5.63;2.97;;;6.30;99.90;;;;;;4980196;28;20577;-70
2024/02/07 08:50:10;;;;;;;4.23;1.90;;;6.30;99.90;;;;;;4982167;28;20465;-69
2024/02/07 08:52:38;;;;;;;4.80;2.47;;;6.20;99.90;;;;;;4985131;28;20577;-71
2024/02/07 08:55:08;;;;;;;2.80;2.03;;;6.20;99.90;;;;;;4982281;28;20452;-71
2024/02/07 08:57:36;;;;;;;16.97;10.10;;;6.30;99.90;;;;;;4984469;28;20440;-71
2024/02/07 09:00:03;;;;;;;3.10;2.80;;;6.40;99.90;;;;;;4982093;28;20488;-71
2024/02/07 09:02:30;;;;;;;2.97;2.47;;;6.60;99.90;;;;;;4973484;28;20537;-71
2024/02/07 09:05:03;;;;;;;4.77;2.50;;;6.60;99.90;;;;;;4984003;28;20849;-71
2024/02/07 09:07:30;;;;;;;3.60;2.50;;;6.50;99.90;;;;;;4984206;28;20474;-71
2024/02/07 09:09:57;;;;;;;2.67;1.70;;;6.50;99.90;;;;;;4982282;28;20481;-71
2024/02/07 09:12:27;;;;;;;12.40;3.20;;;6.60;99.90;;;;;;4986683;28;20457;-71
2024/02/07 09:14:55;;;;;;;3.60;2.27;;;6.50;99.90;;;;;;4989876;28;20498;-71
2024/02/07 09:17:22;;;;;;;5.03;2.93;;;6.50;99.90;;;;;;4982606;28;20465;-71
2024/02/07 09:19:49;;;;;;;5.27;2.40;;;6.60;99.90;;;;;;4984503;28;20484;-71
2024/02/07 09:22:16;;;;;;;4.40;2.87;;;6.50;99.90;;;;;;4981520;28;20458;-71
2024/02/07 09:24:43;;;;;;;7.50;4.20;;;6.60;99.90;;;;;;4983477;28;20823;-70
2024/02/07 09:27:11;;;;;;;4.43;2.40;;;6.70;99.90;;;;;;4981623;28;20506;-70
2024/02/07 09:29:39;;;;;;;6.20;2.67;;;6.50;99.90;;;;;;4980565;28;21016;-70
2024/02/07 09:32:07;;;;;;;6.00;2.40;;;6.60;99.90;;;;;;4980588;28;20460;-70
2024/02/07 09:34:34;;;;;;;3.77;1.67;;;6.60;99.90;;;;;;4986747;28;20449;-71
2024/02/07 09:37:01;;;;;;;3.00;2.20;;;6.60;99.90;;;;;;4985735;28;20495;-71
2024/02/07 09:39:28;;;;;;;2.60;1.40;;;6.50;99.90;;;;;;4977649;28;20473;-71
2024/02/07 09:41:57;;;;;;;2.40;2.00;;;6.50;99.90;;;;;;4981617;28;20483;-70
2024/02/07 09:44:26;;;;;;;3.53;1.97;;;6.40;99.90;;;;;;4983693;28;20432;-71
2024/02/07 09:46:57;;;;;;;4.13;2.00;;;6.50;99.90;;;;;;4980779;28;20469;-71
2024/02/07 09:49:24;;;;;;;3.50;2.47;;;6.50;99.90;;;;;;4981394;28;20465;-71
2024/02/07 09:51:52;;;;;;;3.60;1.80;;;6.60;99.90;;;;;;4981470;28;20909;-71
2024/02/07 09:54:20;;;;;;;5.03;4.57;;;6.50;99.90;;;;;;4982376;28;21112;-69
2024/02/07 09:56:47;;;;;;;7.10;2.97;;;6.50;99.90;;;;;;4981477;28;20474;-70
2024/02/07 09:59:14;;;;;;;3.70;2.77;;;6.50;99.90;;;;;;4982562;28;20506;-70
2024/02/07 10:01:43;;;;;;;3.67;2.53;;;6.50;99.90;;;;;;4981715;28;20493;-70
2024/02/07 10:04:16;;;;;;;8.47;3.40;;;6.50;99.90;;;;;;4984441;28;20465;-70
2024/02/07 10:06:43;;;;;;;5.63;2.60;;;6.50;99.90;;;;;;4977613;28;20486;-69
2024/02/07 10:09:11;;;;;;;5.83;2.90;;;6.50;99.90;;;;;;4980512;28;20441;-71
2024/02/07 10:11:40;;;;;;;2.37;2.17;;;6.50;99.90;;;;;;4983145;28;20559;-69
2024/02/07 10:14:11;;;;;;;2.63;2.17;;;6.60;99.90;;;;;;4980181;28;20904;-69
2024/02/07 10:16:37;;;;;;;3.50;2.23;;;6.60;99.90;;;;;;4981503;28;20489;-70
2024/02/07 10:19:04;;;;;;;3.20;2.37;;;6.70;99.90;;;;;;4982429;28;20463;-70
2024/02/07 10:21:36;;;;;;;4.40;2.70;;;6.80;99.90;;;;;;4982012;28;20987;-70
2024/02/07 10:24:04;;;;;;;11.73;2.50;;;6.90;99.90;;;;;;4980965;28;20465;-70
2024/02/07 10:26:31;;;;;;;10.70;6.40;;;6.80;99.90;;;;;;4980137;28;21011;-70
2024/02/07 10:28:59;;;;;;;7.73;3.90;;;6.80;99.90;;;;;;4984055;28;20473;-69
2024/02/07 10:31:25;;;;;;;5.37;3.40;;;6.90;99.90;;;;;;4978284;28;20704;-70
2024/02/07 10:33:54;;;;;;;6.27;2.90;;;6.90;99.90;;;;;;4982818;28;20462;-70
2024/02/07 10:36:23;;;;;;;4.40;2.70;;;6.90;99.90;;;;;;4979314;28;20500;-70
2024/02/07 10:38:53;;;;;;;9.03;4.50;;;6.90;99.90;;;;;;4979824;28;21045;-71
2024/02/07 10:41:20;;;;;;;4.07;2.53;;;7.10;99.90;;;;;;4982780;28;21348;-71
2024/02/07 10:43:46;;;;;;;9.63;3.77;;;7.00;99.90;;;;;;4983790;28;20557;-70
2024/02/07 10:46:14;;;;;;;5.90;4.17;;;7.00;99.90;;;;;;4975399;28;20465;-70
2024/02/07 10:48:42;;;;;;;7.90;4.10;;;7.10;99.90;;;;;;4980731;28;20515;-70
2024/02/07 10:51:08;;;;;;;6.60;4.27;;;7.10;99.90;;;;;;4982570;28;20446;-70
2024/02/07 10:53:36;;;;;;;8.53;4.20;;;7.20;99.90;;;;;;4984724;28;20476;-70
2024/02/07 10:56:06;;;;;;;9.33;3.93;;;7.30;99.90;;;;;;4979317;28;20882;-70
2024/02/07 10:58:34;;;;;;;4.93;3.50;;;7.30;99.90;;;;;;4986341;28;20465;-70
2024/02/07 11:01:00;;;;;;;8.53;5.20;;;7.20;99.90;;;;;;4986006;28;20482;-70
2024/02/07 11:03:30;;;;;;;8.93;3.60;;;7.30;99.90;;;;;;4979882;28;20528;-70
2024/02/07 11:05:58;;;;;;;4.90;3.37;;;7.20;99.90;;;;;;4986489;28;20820;-70
2024/02/07 11:08:25;;;;;;;7.70;5.13;;;7.20;99.90;;;;;;4983258;28;20466;-70
2024/02/07 11:10:54;;;;;;;8.73;5.83;;;7.10;99.90;;;;;;4986920;28;20437;-70
2024/02/07 11:13:23;;;;;;;7.83;4.53;;;7.00;99.90;;;;;;4987824;28;20553;-70
2024/02/07 11:15:50;;;;;;;11.67;5.97;;;6.80;99.90;;;;;;4988788;28;20492;-71
2024/02/07 11:18:17;;;;;;;10.37;7.23;;;7.00;99.90;;;;;;4981965;28;20577;-70
2024/02/07 11:20:45;;;;;;;10.00;5.20;;;7.30;99.90;;;;;;4983975;28;20579;-70
2024/02/07 11:23:16;;;;;;;16.60;4.90;;;7.50;99.90;;;;;;4983520;28;20467;-71
2024/02/07 11:25:47;;;;;;;6.80;3.47;;;7.70;99.90;;;;;;4978167;28;20621;-71
2024/02/07 11:28:14;;;;;;;8.87;5.93;;;7.70;99.90;;;;;;4982435;28;20467;-70
2024/02/07 11:30:44;;;;;;;6.13;4.30;;;7.70;99.90;;;;;;4985350;28;20472;-70
2024/02/07 11:33:11;;;;;;;3.77;2.70;;;7.70;99.90;;;;;;4979135;28;20465;-70
2024/02/07 11:35:38;;;;;;;10.13;5.40;;;7.40;99.90;;;;;;4981518;28;20489;-70
2024/02/07 11:38:05;;;;;;;8.33;4.27;;;7.50;99.90;;;;;;4977820;28;20469;-70
2024/02/07 11:40:38;;;;;;;6.90;3.20;;;7.60;99.90;;;;;;4980713;28;21002;-70
2024/02/07 11:43:07;;;;;;;8.57;3.57;;;7.70;99.90;;;;;;4984768;28;20433;-70
2024/02/07 11:45:37;;;;;;;5.30;3.73;;;7.60;99.90;;;;;;4980499;28;20488;-70
2024/02/07 11:48:18;;;;;;;5.80;4.73;;;7.70;99.90;;;;;;4979963;28;20474;-70
2024/02/07 11:50:45;;;;;;;9.70;5.10;;;7.80;99.90;;;;;;4984684;28;20539;-70
2024/02/07 11:53:19;;;;;;;6.83;6.13;;;7.70;99.90;;;;;;4983739;28;20469;-70
2024/02/07 11:55:46;;;;;;;10.73;4.70;;;7.70;99.90;;;;;;4981386;28;20499;-70
2024/02/07 11:58:16;;;;;;;10.13;4.90;;;7.70;99.90;;;;;;4978238;28;20436;-70
2024/02/07 12:00:43;;;;;;;8.43;3.80;;;7.30;99.90;;;;;;4982853;28;20448;-69
2024/02/07 12:03:15;;;;;;;7.10;4.33;;;7.20;99.90;;;;;;4984696;28;20437;-70
2024/02/07 12:05:43;;;;;;;6.93;5.33;;;7.40;99.90;;;;;;4975839;28;20462;-69
2024/02/07 12:08:11;;;;;;;8.93;4.63;;;7.50;99.90;;;;;;4986925;28;20470;-69
2024/02/07 12:10:38;;;;;;;4.73;4.27;;;7.60;99.90;;;;;;4984250;28;20469;-70
2024/02/07 12:13:05;;;;;;;7.57;4.00;;;7.60;99.90;;;;;;4977182;28;20466;-70
2024/02/07 12:15:32;;;;;;;5.33;4.53;;;7.70;99.90;;;;;;4979253;28;20489;-70
2024/02/07 12:17:59;;;;;;;7.90;4.60;;;7.70;99.90;;;;;;4988415;28;20458;-69
2024/02/07 12:20:30;;;;;;;7.00;5.67;;;7.50;99.90;;;;;;4986474;28;20463;-70
2024/02/07 12:23:00;;;;;;;8.13;5.63;;;7.50;99.90;;;;;;4985928;28;20570;-71
2024/02/07 12:25:27;;;;;;;6.73;3.37;;;7.60;99.90;;;;;;4982142;28;20461;-71
2024/02/07 12:27:53;;;;;;;10.67;5.40;;;7.70;99.90;;;;;;4986325;28;20458;-71
2024/02/07 12:30:20;;;;;;;8.67;6.20;;;8.00;99.90;;;;;;4985874;28;20459;-71
2024/02/07 12:32:47;;;;;;;6.43;5.73;;;8.10;99.90;;;;;;4988163;28;20428;-71
2024/02/07 12:35:14;;;;;;;5.57;4.10;;;8.30;99.90;;;;;;4983799;28;20485;-71
2024/02/07 12:37:42;;;;;;;10.07;5.13;;;8.40;99.90;;;;;;4982413;28;20834;-71
2024/02/07 12:40:14;;;;;;;9.20;5.17;;;8.20;99.90;;;;;;4984632;28;20454;-70
2024/02/07 12:42:41;;;;;;;4.90;4.50;;;8.10;99.90;;;;;;4985123;28;20580;-70
2024/02/07 12:45:10;;;;;;;8.43;5.70;;;8.00;99.90;;;;;;4989256;28;20564;-69
2024/02/07 12:47:37;;;;;;;16.87;4.80;;;7.90;99.90;;;;;;4980869;28;20476;-70
2024/02/07 12:50:05;;;;;;;5.83;4.00;;;8.10;99.90;;;;;;4984453;28;20458;-70
2024/02/07 12:52:32;;;;;;;7.47;3.53;;;8.20;99.90;;;;;;4983740;28;20465;-70
2024/02/07 12:55:01;;;;;;;6.87;4.23;;;8.30;99.90;;;;;;4977645;28;20470;-70
2024/02/07 12:57:30;;;;;;;5.47;3.30;;;8.60;99.90;;;;;;4981044;28;20900;-71
2024/02/07 13:00:07;;;;;;;9.63;4.33;;;8.60;99.90;;;;;;4981842;28;20495;-71
2024/02/07 13:02:34;;;;;;;5.70;3.60;;;8.40;99.90;;;;;;4981730;28;20473;-71
2024/02/07 13:05:00;;;;;;;7.33;4.23;;;8.40;99.90;;;;;;4984971;28;20437;-69
2024/02/07 13:07:27;;;;;;;8.57;4.60;;;8.40;99.90;;;;;;4983364;28;20473;-70
2024/02/07 13:09:54;;;;;;;11.93;5.37;;;8.30;99.90;;;;;;4980532;28;20469;-70
2024/02/07 13:12:22;;;;;;;8.97;5.87;;;8.50;99.90;;;;;;4989018;28;20461;-70
2024/02/07 13:14:49;;;;;;;7.13;4.77;;;8.40;99.90;;;;;;4987198;28;20456;-71
2024/02/07 13:17:15;;;;;;;9.17;4.90;;;8.30;99.90;;;;;;4983928;28;20486;-71
2024/02/07 13:19:42;;;;;;;6.13;4.10;;;8.50;99.90;;;;;;4981999;28;20474;-70
2024/02/07 13:22:13;;;;;;;11.70;4.37;;;8.60;99.90;;;;;;4988680;28;20463;-70
2024/02/07 13:24:40;;;;;;;9.50;5.40;;;8.80;99.90;;;;;;4987812;28;20583;-70
2024/02/07 13:27:07;;;;;;;17.27;5.50;;;8.90;99.90;;;;;;4985431;28;20462;-70
2024/02/07 13:29:39;;;;;;;17.47;5.47;;;9.10;99.90;;;;;;4986265;28;20473;-70
2024/02/07 13:32:09;;;;;;;11.70;6.23;;;9.00;99.90;;;;;;4989225;28;20458;-71
2024/02/07 13:34:37;;;;;;;6.13;5.00;;;8.80;99.90;;;;;;4984977;28;20481;-71
2024/02/07 13:37:03;;;;;;;14.63;5.87;;;9.30;99.90;;;;;;4979469;28;20596;-71
2024/02/07 13:39:33;;;;;;;8.10;5.30;;;9.30;99.90;;;;;;4983641;28;20458;-71
2024/02/07 13:42:00;;;;;;;8.43;5.13;;;9.30;99.90;;;;;;4982728;28;21260;-70
2024/02/07 13:44:26;;;;;;;7.40;4.93;;;9.20;99.90;;;;;;4980486;28;20474;-70
2024/02/07 13:46:54;;;;;;;9.90;5.07;;;9.10;99.90;;;;;;4978312;28;20475;-70
2024/02/07 13:49:22;;;;;;;11.87;5.37;;;9.20;99.90;;;;;;4982701;28;20510;-70
2024/02/07 13:51:49;;;;;;;16.53;5.13;;;9.30;99.90;;;;;;4983604;28;20776;-70
2024/02/07 13:54:16;;;;;;;19.70;5.77;;;9.30;99.90;;;;;;4979837;28;20469;-71
2024/02/07 13:56:43;;;;;;;15.40;4.60;;;9.20;99.90;;;;;;4980074;28;20613;-70
2024/02/07 13:59:09;;;;;;;27.37;4.37;;;9.00;99.90;;;;;;4987244;28;20458;-70
2024/02/07 14:01:37;;;;;;;9.50;6.10;;;9.00;99.90;;;;;;4986890;28;20973;-70
2024/02/07 14:04:05;;;;;;;13.70;5.30;;;9.10;99.90;;;;;;4981500;28;20542;-70
2024/02/07 14:06:32;;;;;;;7.63;4.10;;;9.30;99.90;;;;;;4986578;28;20489;-70
2024/02/07 14:08:59;;;;;;;8.83;5.27;;;9.50;99.90;;;;;;4976604;28;20454;-70